Time;durP1;ratioP1;P1;durP2;ratioP2;P2;SDS_P1;SDS_P2;PMS_P1;PMS_P2;Temp;Humidity;BMP_temperature;BMP_pressure;BME280_temperature;BME280_humidity;BME280_pressure;Samples;Min_cycle;Max_cycle;Signal;HPM_P1;HPM_P2
2023/03/19 00:00:01;;;;;;;10.90;7.60;;;;;;;;;;79795;261;3031843;-34
2023/03/19 00:02:36;;;;;;;11.00;7.60;;;;;;;;;;79745;261;3028529;-32
2023/03/19 00:05:14;;;;;;;11.40;7.60;;;;;;;;;;79846;261;3027227;-36
2023/03/19 00:07:52;;;;;;;11.70;7.90;;;;;;;;;;79811;261;3030869;-33
2023/03/19 00:10:30;;;;;;;11.80;8.00;;;;;;;;;;79814;261;3031499;-33
2023/03/19 00:13:09;;;;;;;11.50;7.70;;;;;;;;;;79807;261;3028283;-33
2023/03/19 00:15:46;;;;;;;12.40;8.00;;;;;;;;;;79841;261;3027073;-33
2023/03/19 00:18:27;;;;;;;10.80;8.10;;;;;;;;;;79852;261;3031327;-33
2023/03/19 00:21:04;;;;;;;11.30;8.00;;;;;;;;;;79828;261;3037190;-33
2023/03/19 00:23:41;;;;;;;10.20;7.40;;;;;;;;;;80553;261;3011514;-33
2023/03/19 00:26:19;;;;;;;11.70;7.90;;;;;;;;;;79826;261;3031041;-33
2023/03/19 00:29:01;;;;;;;10.50;7.60;;;;;;;;;;79836;261;3027776;-33
2023/03/19 00:31:38;;;;;;;12.10;8.10;;;;;;;;;;79814;261;3031425;-33
2023/03/19 00:34:17;;;;;;;10.60;7.40;;;;;;;;;;79836;261;3031694;-33
2023/03/19 00:36:57;;;;;;;10.40;7.70;;;;;;;;;;79835;261;3028806;-33
2023/03/19 00:39:34;;;;;;;10.30;7.50;;;;;;;;;;79811;260;3028494;-33
2023/03/19 00:42:10;;;;;;;10.10;7.20;;;;;;;;;;79814;261;3030488;-33
2023/03/19 00:44:47;;;;;;;10.60;7.80;;;;;;;;;;79824;260;3031631;-34
2023/03/19 00:47:24;;;;;;;10.00;7.40;;;;;;;;;;79824;261;3028597;-35
2023/03/19 00:50:04;;;;;;;9.90;7.30;;;;;;;;;;79806;261;3027087;-35
2023/03/19 00:52:44;;;;;;;10.80;7.20;;;;;;;;;;79788;261;3030753;-35
2023/03/19 00:55:19;;;;;;;10.40;7.60;;;;;;;;;;79788;261;3031573;-35
2023/03/19 00:57:59;;;;;;;10.90;7.90;;;;;;;;;;79817;261;3028702;-35
2023/03/19 01:00:37;;;;;;;9.90;7.10;;;;;;;;;;79787;261;3027489;-35
2023/03/19 01:03:17;;;;;;;10.20;7.40;;;;;;;;;;79831;261;3030403;-35
2023/03/19 01:05:56;;;;;;;10.10;7.00;;;;;;;;;;79806;261;3032035;-35
2023/03/19 01:08:31;;;;;;;9.50;7.10;;;;;;;;;;79801;260;3028840;-35
2023/03/19 01:11:17;;;;;;;9.60;7.30;;;;;;;;;;79793;260;3028023;-35
2023/03/19 01:13:53;;;;;;;9.40;6.80;;;;;;;;;;79825;261;3030392;-35
2023/03/19 01:16:34;;;;;;;9.80;7.20;;;;;;;;;;79821;261;3031324;-34
2023/03/19 01:19:11;;;;;;;10.80;7.60;;;;;;;;;;79848;261;3028378;-35
2023/03/19 01:21:49;;;;;;;11.20;7.50;;;;;;;;;;79798;260;3027111;-35
2023/03/19 01:24:30;;;;;;;10.20;7.40;;;;;;;;;;79822;261;3031471;-35
2023/03/19 01:27:07;;;;;;;10.00;7.10;;;;;;;;;;79818;261;3031833;-35
2023/03/19 01:29:43;;;;;;;9.50;7.10;;;;;;;;;;79861;261;3028779;-35
2023/03/19 01:32:21;;;;;;;10.00;7.40;;;;;;;;;;79826;260;3027658;-35
2023/03/19 01:34:57;;;;;;;10.40;7.40;;;;;;;;;;79836;261;3030832;-35
2023/03/19 01:37:35;;;;;;;9.90;7.50;;;;;;;;;;79798;261;3031308;-35
2023/03/19 01:40:14;;;;;;;9.50;7.10;;;;;;;;;;79831;261;3029343;-35
2023/03/19 01:42:58;;;;;;;9.40;7.00;;;;;;;;;;79827;284;3033924;-35
2023/03/19 01:45:45;;;;;;;10.70;7.60;;;;;;;;;;79829;261;3033843;-35
2023/03/19 01:48:35;;;;;;;9.60;7.30;;;;;;;;;;79804;261;3031217;-34
2023/03/19 01:51:18;;;;;;;10.10;7.40;;;;;;;;;;79786;261;3028312;-35
2023/03/19 01:53:58;;;;;;;10.40;7.50;;;;;;;;;;79835;261;3027608;-35
2023/03/19 01:56:38;;;;;;;9.90;7.60;;;;;;;;;;79853;261;3031013;-35
2023/03/19 01:59:20;;;;;;;10.30;7.40;;;;;;;;;;79731;261;3031462;-35
2023/03/19 02:02:03;;;;;;;9.30;7.30;;;;;;;;;;79770;260;3027942;-35
2023/03/19 02:04:45;;;;;;;10.00;7.50;;;;;;;;;;79822;261;3028005;-35
2023/03/19 02:07:23;;;;;;;10.10;7.50;;;;;;;;;;79802;261;3030969;-35
2023/03/19 02:10:00;;;;;;;9.50;7.30;;;;;;;;;;79848;260;3031640;-35
2023/03/19 02:12:37;;;;;;;9.70;7.40;;;;;;;;;;79800;261;3028622;-35
2023/03/19 02:15:13;;;;;;;11.00;8.00;;;;;;;;;;79812;261;3027068;-35
2023/03/19 02:17:50;;;;;;;10.20;7.90;;;;;;;;;;79822;261;3031252;-35
2023/03/19 02:20:35;;;;;;;10.90;8.00;;;;;;;;;;79824;261;3031499;-35
2023/03/19 02:23:19;;;;;;;10.30;7.80;;;;;;;;;;79802;261;3028253;-35
2023/03/19 02:26:10;;;;;;;10.50;7.80;;;;;;;;;;79829;261;3029960;-35
2023/03/19 02:28:48;;;;;;;9.80;7.70;;;;;;;;;;79844;261;3031797;-35
2023/03/19 02:31:24;;;;;;;10.30;7.80;;;;;;;;;;79808;261;3031152;-35
2023/03/19 02:34:06;;;;;;;9.90;7.60;;;;;;;;;;79834;261;3034642;-34
2023/03/19 02:36:46;;;;;;;9.50;7.60;;;;;;;;;;79859;261;3027300;-35
2023/03/19 02:39:30;;;;;;;10.90;8.00;;;;;;;;;;79839;261;3031251;-35
2023/03/19 02:42:08;;;;;;;10.70;7.80;;;;;;;;;;79815;261;3031916;-35
2023/03/19 02:44:45;;;;;;;10.40;8.00;;;;;;;;;;79831;261;3028957;-35
2023/03/19 02:47:21;;;;;;;9.50;7.40;;;;;;;;;;79836;261;3027648;-35
2023/03/19 02:49:58;;;;;;;9.90;7.80;;;;;;;;;;79797;261;3030511;-35
2023/03/19 02:52:33;;;;;;;11.30;8.30;;;;;;;;;;79814;253;3031722;-35
2023/03/19 02:55:11;;;;;;;10.10;7.60;;;;;;;;;;79840;261;3028703;-34
2023/03/19 02:57:49;;;;;;;10.10;8.00;;;;;;;;;;79819;261;3027743;-35
2023/03/19 03:00:25;;;;;;;11.00;8.10;;;;;;;;;;79863;261;3031359;-35
2023/03/19 03:03:03;;;;;;;10.00;7.80;;;;;;;;;;79791;261;3031433;-35
2023/03/19 03:05:42;;;;;;;10.70;7.90;;;;;;;;;;79836;261;3027848;-35
2023/03/19 03:08:20;;;;;;;9.90;7.90;;;;;;;;;;79835;253;3027319;-35
2023/03/19 03:11:00;;;;;;;10.60;7.90;;;;;;;;;;79822;261;3031337;-35
2023/03/19 03:13:36;;;;;;;9.50;7.90;;;;;;;;;;79800;265;3032213;-35
2023/03/19 03:16:12;;;;;;;10.30;7.80;;;;;;;;;;79859;261;3028313;-35
2023/03/19 03:18:51;;;;;;;10.60;8.50;;;;;;;;;;79809;261;3026997;-35
2023/03/19 03:21:29;;;;;;;10.70;8.10;;;;;;;;;;79810;261;3031377;-35
2023/03/19 03:24:10;;;;;;;10.60;8.30;;;;;;;;;;79776;261;3032073;-35
2023/03/19 03:26:48;;;;;;;11.20;8.50;;;;;;;;;;79836;261;3029311;-35
2023/03/19 03:29:26;;;;;;;9.70;7.70;;;;;;;;;;79776;261;3027497;-35
2023/03/19 03:32:05;;;;;;;10.70;8.20;;;;;;;;;;79814;261;3030504;-35
2023/03/19 03:34:44;;;;;;;11.10;8.10;;;;;;;;;;79819;261;3031856;-35
2023/03/19 03:37:21;;;;;;;11.40;8.60;;;;;;;;;;79831;261;3027983;-35
2023/03/19 03:39:58;;;;;;;10.90;8.90;;;;;;;;;;79818;261;3027779;-35
2023/03/19 03:42:36;;;;;;;10.20;8.20;;;;;;;;;;80551;261;3012689;-35
2023/03/19 03:45:13;;;;;;;10.80;8.50;;;;;;;;;;79799;261;3030499;-35
2023/03/19 03:47:48;;;;;;;10.20;8.30;;;;;;;;;;79825;261;3031708;-35
2023/03/19 03:50:24;;;;;;;12.10;8.40;;;;;;;;;;79839;261;3028657;-35
2023/03/19 03:53:01;;;;;;;11.10;8.60;;;;;;;;;;79816;261;3028133;-35
2023/03/19 03:55:39;;;;;;;10.20;8.30;;;;;;;;;;79796;257;3039201;-35
2023/03/19 03:58:19;;;;;;;10.50;8.50;;;;;;;;;;79822;261;3031987;-35
2023/03/19 04:00:58;;;;;;;10.60;8.20;;;;;;;;;;79819;261;3028402;-35
2023/03/19 04:03:36;;;;;;;10.90;8.50;;;;;;;;;;79810;260;3027226;-35
2023/03/19 04:06:18;;;;;;;10.30;8.20;;;;;;;;;;79833;261;3030879;-35
2023/03/19 04:08:56;;;;;;;10.60;8.70;;;;;;;;;;79837;261;3031967;-35
2023/03/19 04:11:35;;;;;;;10.90;8.30;;;;;;;;;;79815;261;3028378;-35
2023/03/19 04:14:12;;;;;;;12.50;8.10;;;;;;;;;;79747;262;3027799;-35
2023/03/19 04:16:49;;;;;;;11.30;8.50;;;;;;;;;;79852;261;3030684;-35
2023/03/19 04:19:32;;;;;;;10.60;8.10;;;;;;;;;;79804;261;3031997;-35
2023/03/19 04:22:09;;;;;;;11.10;8.40;;;;;;;;;;79864;261;3028863;-35
2023/03/19 04:24:44;;;;;;;11.40;8.80;;;;;;;;;;79828;261;3027745;-35
2023/03/19 04:27:22;;;;;;;11.10;8.80;;;;;;;;;;80575;261;3011399;-35
2023/03/19 04:30:00;;;;;;;10.80;8.40;;;;;;;;;;79833;261;3031082;-35
2023/03/19 04:32:39;;;;;;;11.00;8.70;;;;;;;;;;79796;261;3031413;-35
2023/03/19 04:35:17;;;;;;;11.70;8.60;;;;;;;;;;79662;261;3028431;-35
2023/03/19 04:37:58;;;;;;;11.90;8.50;;;;;;;;;;79829;261;3027299;-35
2023/03/19 04:40:32;;;;;;;12.00;8.80;;;;;;;;;;79832;260;3031007;-35
2023/03/19 04:43:10;;;;;;;10.80;8.80;;;;;;;;;;80564;260;3011262;-35
2023/03/19 04:45:49;;;;;;;11.30;8.80;;;;;;;;;;79802;261;3031602;-35
2023/03/19 04:48:27;;;;;;;11.80;9.20;;;;;;;;;;79842;261;3028148;-35
2023/03/19 04:51:07;;;;;;;11.70;8.90;;;;;;;;;;79834;261;3027352;-35
2023/03/19 04:53:46;;;;;;;11.00;8.80;;;;;;;;;;79830;261;3030394;-35
2023/03/19 04:56:25;;;;;;;13.20;9.40;;;;;;;;;;79758;261;3031889;-35
2023/03/19 04:59:02;;;;;;;12.10;9.00;;;;;;;;;;79812;261;3028513;-35
2023/03/19 05:01:42;;;;;;;12.20;9.30;;;;;;;;;;79803;261;3027159;-35
2023/03/19 05:04:22;;;;;;;11.80;9.20;;;;;;;;;;79844;261;3031062;-35
2023/03/19 05:07:00;;;;;;;12.80;9.40;;;;;;;;;;79824;261;3031868;-35
2023/03/19 05:09:37;;;;;;;12.60;9.20;;;;;;;;;;79837;313;3028379;-35
2023/03/19 05:12:15;;;;;;;11.60;9.20;;;;;;;;;;79862;261;3027752;-35
2023/03/19 05:14:53;;;;;;;12.70;9.90;;;;;;;;;;79832;259;3031423;-35
2023/03/19 05:17:32;;;;;;;12.30;9.20;;;;;;;;;;79833;260;3032775;-35
2023/03/19 05:20:10;;;;;;;11.00;8.80;;;;;;;;;;79784;261;3028209;-35
2023/03/19 05:22:48;;;;;;;11.30;8.80;;;;;;;;;;79807;261;3030102;-35
2023/03/19 05:25:26;;;;;;;11.80;8.80;;;;;;;;;;79811;260;3030806;-35
2023/03/19 05:28:03;;;;;;;11.80;9.20;;;;;;;;;;79802;261;3031788;-35
2023/03/19 05:30:41;;;;;;;10.70;8.30;;;;;;;;;;79824;261;3028100;-35
2023/03/19 05:33:18;;;;;;;11.80;9.20;;;;;;;;;;79831;261;3027795;-35
2023/03/19 05:35:56;;;;;;;11.80;9.10;;;;;;;;;;79784;261;3031394;-35
2023/03/19 05:38:34;;;;;;;12.10;8.90;;;;;;;;;;79829;261;3031652;-35
2023/03/19 05:41:13;;;;;;;11.90;9.40;;;;;;;;;;79831;261;3028180;-35
2023/03/19 05:43:52;;;;;;;11.50;8.70;;;;;;;;;;79814;261;3027234;-35
2023/03/19 05:46:29;;;;;;;12.00;9.10;;;;;;;;;;79817;261;3031184;-35
2023/03/19 05:49:07;;;;;;;11.60;9.10;;;;;;;;;;79830;261;3031403;-35
2023/03/19 05:51:45;;;;;;;11.50;8.70;;;;;;;;;;79815;257;3028404;-35
2023/03/19 05:54:25;;;;;;;11.40;8.70;;;;;;;;;;79823;261;3027120;-35
2023/03/19 05:57:02;;;;;;;11.20;9.10;;;;;;;;;;79773;260;3030695;-35
2023/03/19 05:59:41;;;;;;;11.00;8.70;;;;;;;;;;79827;261;3032701;-35
2023/03/19 06:02:20;;;;;;;11.50;8.70;;;;;;;;;;79846;261;3028412;-35
2023/03/19 06:05:00;;;;;;;12.00;9.30;;;;;;;;;;79822;261;3027924;-35
2023/03/19 06:07:38;;;;;;;10.70;8.70;;;;;;;;;;79805;261;3030454;-35
2023/03/19 06:10:14;;;;;;;11.10;8.80;;;;;;;;;;79840;260;3032616;-35
2023/03/19 06:12:52;;;;;;;11.30;8.90;;;;;;;;;;79812;261;3027910;-35
2023/03/19 06:15:30;;;;;;;11.10;8.60;;;;;;;;;;79815;261;3027510;-35
2023/03/19 06:18:07;;;;;;;10.90;8.80;;;;;;;;;;79765;261;3031350;-35
2023/03/19 06:20:44;;;;;;;10.80;8.40;;;;;;;;;;80579;261;3011440;-35
2023/03/19 06:23:23;;;;;;;10.70;8.50;;;;;;;;;;79799;261;3031815;-35
2023/03/19 06:26:03;;;;;;;10.80;8.70;;;;;;;;;;79823;261;3028510;-35
2023/03/19 06:28:41;;;;;;;10.30;8.50;;;;;;;;;;79790;261;3027690;-35
2023/03/19 06:31:19;;;;;;;10.70;8.80;;;;;;;;;;79807;261;3031107;-35
2023/03/19 06:33:59;;;;;;;10.60;8.60;;;;;;;;;;79808;261;3032027;-35
2023/03/19 06:36:41;;;;;;;10.70;9.00;;;;;;;;;;78879;261;3028715;-35
2023/03/19 06:39:22;;;;;;;10.40;8.40;;;;;;;;;;79862;261;3033920;-35
2023/03/19 06:42:00;;;;;;;11.20;8.60;;;;;;;;;;79806;261;3031108;-35
2023/03/19 06:44:39;;;;;;;10.90;8.30;;;;;;;;;;79811;261;3032044;-35
2023/03/19 06:47:15;;;;;;;10.40;8.80;;;;;;;;;;79809;261;3028437;-35
2023/03/19 06:49:51;;;;;;;11.40;8.60;;;;;;;;;;79844;261;3033281;-35
2023/03/19 06:52:27;;;;;;;11.30;8.40;;;;;;;;;;79789;261;3030529;-35
2023/03/19 06:55:06;;;;;;;10.90;8.60;;;;;;;;;;80594;261;3012038;-35
2023/03/19 06:57:47;;;;;;;10.10;8.40;;;;;;;;;;79790;261;3031362;-35
2023/03/19 07:00:26;;;;;;;10.70;8.70;;;;;;;;;;79841;261;3028331;-35
2023/03/19 07:03:02;;;;;;;10.40;8.30;;;;;;;;;;79816;261;3027976;-35
2023/03/19 07:05:40;;;;;;;10.90;8.40;;;;;;;;;;79841;261;3031196;-35
2023/03/19 07:08:17;;;;;;;11.50;8.60;;;;;;;;;;79815;261;3032539;-35
2023/03/19 07:10:53;;;;;;;10.60;8.60;;;;;;;;;;79810;261;3028286;-36
2023/03/19 07:13:34;;;;;;;11.00;8.80;;;;;;;;;;79821;261;3027242;-35
2023/03/19 07:16:11;;;;;;;10.90;8.70;;;;;;;;;;79813;261;3030568;-34
2023/03/19 07:18:51;;;;;;;9.50;7.80;;;;;;;;;;79786;261;3032450;-34
2023/03/19 07:21:30;;;;;;;10.00;8.30;;;;;;;;;;79852;261;3028957;-34
2023/03/19 07:24:12;;;;;;;11.10;8.90;;;;;;;;;;79762;261;3027833;-33
2023/03/19 07:26:50;;;;;;;10.60;8.20;;;;;;;;;;79763;261;3030703;-34
2023/03/19 07:29:30;;;;;;;10.60;8.40;;;;;;;;;;79719;261;3031560;-34
2023/03/19 07:32:08;;;;;;;11.10;8.20;;;;;;;;;;79720;261;3028776;-34
2023/03/19 07:34:46;;;;;;;10.50;8.30;;;;;;;;;;79773;261;3027996;-33
2023/03/19 07:37:26;;;;;;;10.00;7.90;;;;;;;;;;79710;261;3031142;-34
2023/03/19 07:40:06;;;;;;;10.60;8.40;;;;;;;;;;79742;261;3032210;-34
2023/03/19 07:42:44;;;;;;;10.10;8.30;;;;;;;;;;79770;261;3028348;-34
2023/03/19 07:45:23;;;;;;;10.70;8.30;;;;;;;;;;79752;261;3027999;-34
2023/03/19 07:48:03;;;;;;;10.50;8.30;;;;;;;;;;79735;261;3030701;-34
2023/03/19 07:50:42;;;;;;;10.40;8.40;;;;;;;;;;79723;261;3031823;-33
2023/03/19 07:53:23;;;;;;;10.30;8.40;;;;;;;;;;79774;261;3028080;-34
2023/03/19 07:55:59;;;;;;;9.80;7.90;;;;;;;;;;79762;261;3027652;-33
2023/03/19 07:58:37;;;;;;;10.10;8.00;;;;;;;;;;79786;261;3030556;-33
2023/03/19 08:01:15;;;;;;;10.50;8.60;;;;;;;;;;79809;261;3037843;-34
2023/03/19 08:03:52;;;;;;;10.50;8.20;;;;;;;;;;79792;261;3028239;-34
2023/03/19 08:06:28;;;;;;;11.00;8.50;;;;;;;;;;79689;261;3027688;-34
2023/03/19 08:09:08;;;;;;;10.10;8.20;;;;;;;;;;79703;261;3030707;-34
2023/03/19 08:11:46;;;;;;;10.00;7.80;;;;;;;;;;79753;261;3038533;-34
2023/03/19 08:14:26;;;;;;;10.60;8.10;;;;;;;;;;79757;261;3028521;-34
2023/03/19 08:17:02;;;;;;;10.70;8.20;;;;;;;;;;79744;261;3027926;-34
2023/03/19 08:19:41;;;;;;;10.20;8.00;;;;;;;;;;79695;261;3030914;-34
2023/03/19 08:22:19;;;;;;;10.20;8.30;;;;;;;;;;79743;261;3032100;-34
2023/03/19 08:24:57;;;;;;;10.40;8.10;;;;;;;;;;79804;261;3028364;-34
2023/03/19 08:27:56;;;;;;;10.40;8.10;;;;;;;;;;79846;261;3027862;-34
2023/03/19 08:30:32;;;;;;;10.50;8.10;;;;;;;;;;79773;260;3031002;-32
2023/03/19 08:33:15;;;;;;;9.60;7.70;;;;;;;;;;79814;260;3032106;-35
2023/03/19 08:35:53;;;;;;;10.20;7.60;;;;;;;;;;79824;260;3028403;-35
2023/03/19 08:38:33;;;;;;;10.40;7.80;;;;;;;;;;79832;260;3027663;-33
2023/03/19 08:41:12;;;;;;;9.70;7.50;;;;;;;;;;79757;260;3030935;-34
2023/03/19 08:43:48;;;;;;;10.70;7.90;;;;;;;;;;79817;260;3031627;-35
2023/03/19 08:46:28;;;;;;;9.90;8.00;;;;;;;;;;79803;260;3028084;-35
2023/03/19 08:49:05;;;;;;;9.70;7.60;;;;;;;;;;79836;260;3027372;-35
2023/03/19 08:51:43;;;;;;;10.20;7.80;;;;;;;;;;79805;248;3030679;-34
2023/03/19 08:54:22;;;;;;;10.20;8.00;;;;;;;;;;79812;260;3031816;-34
2023/03/19 08:56:58;;;;;;;9.40;7.50;;;;;;;;;;79854;260;3027836;-34
2023/03/19 08:59:36;;;;;;;9.90;7.80;;;;;;;;;;79736;260;3027328;-34
2023/03/19 09:02:14;;;;;;;9.90;8.00;;;;;;;;;;79833;260;3031716;-34
2023/03/19 09:04:53;;;;;;;9.60;7.70;;;;;;;;;;79837;260;3031949;-34
2023/03/19 09:07:32;;;;;;;10.10;8.00;;;;;;;;;;79835;260;3028527;-34
2023/03/19 09:10:11;;;;;;;9.50;7.50;;;;;;;;;;79851;260;3027886;-34
2023/03/19 09:12:45;;;;;;;10.00;7.70;;;;;;;;;;79927;260;3036976;-34
2023/03/19 09:15:26;;;;;;;9.60;7.70;;;;;;;;;;79834;260;3031959;-34
2023/03/19 09:18:03;;;;;;;10.40;7.80;;;;;;;;;;79844;260;3028880;-34
2023/03/19 09:20:40;;;;;;;9.80;7.50;;;;;;;;;;79829;260;3027639;-34
2023/03/19 09:23:22;;;;;;;9.70;7.80;;;;;;;;;;79827;260;3038388;-34
2023/03/19 09:25:58;;;;;;;9.70;7.70;;;;;;;;;;80108;260;3031927;-32
2023/03/19 09:28:36;;;;;;;11.30;8.20;;;;;;;;;;80563;249;3011456;-32
2023/03/19 09:31:14;;;;;;;10.20;7.90;;;;;;;;;;79860;260;3028120;-32
2023/03/19 09:33:52;;;;;;;10.30;8.10;;;;;;;;;;80586;260;3011567;-32
2023/03/19 09:36:30;;;;;;;10.10;8.20;;;;;;;;;;79813;260;3027568;-32
2023/03/19 09:39:06;;;;;;;11.20;9.20;;;;;;;;;;80575;260;3012483;-32
2023/03/19 09:42:02;;;;;;;11.60;8.70;;;;;;;;;;79803;261;3031172;-32
2023/03/19 09:44:42;;;;;;;10.80;8.30;;;;;;;;;;79829;260;3032415;-32
2023/03/19 09:47:31;;;;;;;10.40;7.80;;;;;;;;;;79843;260;3028665;-32
2023/03/19 09:50:13;;;;;;;10.70;8.30;;;;;;;;;;79863;260;3028232;-32
2023/03/19 09:52:51;;;;;;;11.50;8.40;;;;;;;;;;79816;260;3031927;-32
2023/03/19 09:55:45;;;;;;;10.50;8.00;;;;;;;;;;79863;259;3031586;-32
2023/03/19 09:58:23;;;;;;;10.70;8.00;;;;;;;;;;79830;260;3029118;-32
2023/03/19 10:00:59;;;;;;;10.50;8.20;;;;;;;;;;79836;260;3027624;-32
2023/03/19 10:03:47;;;;;;;11.80;8.30;;;;;;;;;;79862;260;3031021;-32
2023/03/19 10:06:31;;;;;;;11.10;8.10;;;;;;;;;;79848;260;3031207;-32
2023/03/19 10:09:31;;;;;;;11.80;8.30;;;;;;;;;;79835;260;3027873;-32
2023/03/19 10:12:25;;;;;;;10.20;7.90;;;;;;;;;;79826;260;3027570;-32
2023/03/19 10:15:16;;;;;;;10.90;7.90;;;;;;;;;;79906;260;3031059;-32
2023/03/19 10:18:05;;;;;;;11.50;8.00;;;;;;;;;;79863;260;3031874;-32
2023/03/19 10:20:55;;;;;;;10.70;8.20;;;;;;;;;;79850;261;3028566;-33
2023/03/19 10:23:41;;;;;;;10.00;7.30;;;;;;;;;;79817;260;3027778;-32
2023/03/19 10:26:20;;;;;;;10.50;7.60;;;;;;;;;;79852;272;3030954;-32
2023/03/19 10:29:10;;;;;;;11.30;7.90;;;;;;;;;;79815;260;3031815;-32
2023/03/19 10:31:52;;;;;;;9.40;7.00;;;;;;;;;;79851;260;3028240;-32
2023/03/19 10:34:34;;;;;;;9.20;7.10;;;;;;;;;;79791;260;3027923;-32
2023/03/19 10:37:19;;;;;;;10.40;7.40;;;;;;;;;;79869;261;3031948;-32
2023/03/19 10:39:59;;;;;;;10.10;7.40;;;;;;;;;;79828;260;3032527;-32
2023/03/19 10:42:56;;;;;;;9.40;7.00;;;;;;;;;;79824;260;3028977;-32
2023/03/19 10:45:33;;;;;;;9.40;6.90;;;;;;;;;;79837;261;3027778;-32
2023/03/19 10:48:18;;;;;;;9.10;6.90;;;;;;;;;;79813;260;3031428;-32
2023/03/19 10:51:00;;;;;;;9.40;7.20;;;;;;;;;;79825;260;3031890;-32
2023/03/19 10:53:38;;;;;;;8.90;7.10;;;;;;;;;;79806;260;3028227;-32
2023/03/19 10:56:23;;;;;;;9.10;6.90;;;;;;;;;;79895;261;3027735;-32
2023/03/19 10:59:08;;;;;;;9.00;6.80;;;;;;;;;;79850;261;3031025;-32
2023/03/19 11:01:45;;;;;;;9.10;6.80;;;;;;;;;;79810;260;3032545;-32
2023/03/19 11:04:25;;;;;;;9.00;7.10;;;;;;;;;;79809;261;3028188;-34
2023/03/19 11:07:11;;;;;;;10.10;7.30;;;;;;;;;;79850;249;3027028;-32
2023/03/19 11:09:49;;;;;;;9.20;7.10;;;;;;;;;;79812;260;3031588;-32
2023/03/19 11:12:32;;;;;;;9.30;7.00;;;;;;;;;;79819;260;3031386;-32
2023/03/19 11:15:29;;;;;;;9.70;6.90;;;;;;;;;;79805;260;3028575;-32
2023/03/19 11:18:15;;;;;;;9.40;6.90;;;;;;;;;;79844;260;3027249;-32
2023/03/19 11:21:00;;;;;;;10.10;6.60;;;;;;;;;;79835;260;3030662;-32
2023/03/19 11:23:43;;;;;;;8.80;6.70;;;;;;;;;;79822;260;3031308;-32
2023/03/19 11:26:27;;;;;;;9.40;6.90;;;;;;;;;;79845;260;3028594;-32
2023/03/19 11:29:09;;;;;;;9.40;7.00;;;;;;;;;;79837;261;3027201;-33
2023/03/19 11:31:55;;;;;;;9.50;7.20;;;;;;;;;;79848;260;3031365;-32
2023/03/19 11:34:42;;;;;;;9.10;6.60;;;;;;;;;;79811;260;3031966;-32
2023/03/19 11:37:30;;;;;;;8.50;6.40;;;;;;;;;;79849;260;3028789;-32
2023/03/19 11:40:17;;;;;;;8.60;6.30;;;;;;;;;;79779;261;3027263;-33
2023/03/19 11:43:18;;;;;;;9.00;6.90;;;;;;;;;;79823;260;3030549;-34
2023/03/19 11:46:04;;;;;;;9.40;6.80;;;;;;;;;;79703;260;3031897;-34
2023/03/19 11:49:03;;;;;;;8.80;6.30;;;;;;;;;;79833;261;3028536;-34
2023/03/19 11:51:49;;;;;;;9.40;6.50;;;;;;;;;;79865;260;3028061;-34
2023/03/19 11:54:35;;;;;;;9.10;6.50;;;;;;;;;;79818;261;3031117;-34
2023/03/19 11:57:16;;;;;;;8.60;6.40;;;;;;;;;;79852;260;3031397;-34
2023/03/19 12:00:27;;;;;;;9.00;6.50;;;;;;;;;;79812;260;3028228;-34
2023/03/19 12:03:34;;;;;;;9.00;6.10;;;;;;;;;;79842;260;3027790;-34
2023/03/19 12:06:19;;;;;;;7.80;5.80;;;;;;;;;;79810;257;3030925;-34
2023/03/19 12:09:01;;;;;;;7.70;6.20;;;;;;;;;;79825;260;3031512;-34
2023/03/19 12:11:45;;;;;;;8.10;6.30;;;;;;;;;;80398;260;3028258;-34
2023/03/19 12:14:37;;;;;;;8.10;6.10;;;;;;;;;;79850;249;3027442;-34
2023/03/19 12:17:29;;;;;;;8.10;6.30;;;;;;;;;;79816;261;3036887;-34
2023/03/19 12:20:44;;;;;;;8.40;6.20;;;;;;;;;;79821;260;3031683;-34
2023/03/19 12:23:28;;;;;;;;;;;;;;;;;;79711;260;3028879;-34
2023/03/19 12:26:12;;;;;;;7.80;5.80;;;;;;;;;;79811;260;3027823;-34
2023/03/19 12:28:57;;;;;;;7.90;6.10;;;;;;;;;;79839;260;3031066;-34
2023/03/19 12:32:04;;;;;;;8.10;6.10;;;;;;;;;;79818;261;3031899;-34
2023/03/19 12:34:49;;;;;;;8.20;5.90;;;;;;;;;;79851;260;3028537;-34
2023/03/19 12:37:33;;;;;;;6.80;5.70;;;;;;;;;;79828;260;3027662;-34
2023/03/19 12:40:26;;;;;;;7.60;6.00;;;;;;;;;;79838;260;3030633;-34
2023/03/19 12:43:10;;;;;;;7.10;5.60;;;;;;;;;;79847;260;3031154;-34
2023/03/19 12:45:49;;;;;;;7.80;5.80;;;;;;;;;;79819;260;3028220;-34
2023/03/19 12:48:31;;;;;;;7.80;6.00;;;;;;;;;;79833;260;3028193;-34
2023/03/19 12:51:16;;;;;;;8.00;5.90;;;;;;;;;;79806;260;3030663;-34
2023/03/19 12:53:58;;;;;;;8.50;6.20;;;;;;;;;;79823;261;3031916;-34
2023/03/19 12:56:40;;;;;;;8.20;6.10;;;;;;;;;;79778;260;3028097;-34
2023/03/19 12:59:29;;;;;;;7.40;5.70;;;;;;;;;;79830;260;3027369;-34
2023/03/19 13:02:12;;;;;;;8.20;6.10;;;;;;;;;;79835;260;3031360;-34
2023/03/19 13:04:56;;;;;;;7.90;5.70;;;;;;;;;;79815;260;3031757;-34
2023/03/19 13:07:44;;;;;;;7.30;5.80;;;;;;;;;;79804;260;3028381;-34
2023/03/19 13:10:24;;;;;;;7.30;5.70;;;;;;;;;;79828;260;3027025;-34
2023/03/19 13:13:03;;;;;;;7.40;5.50;;;;;;;;;;79851;260;3030565;-34
2023/03/19 13:15:44;;;;;;;7.60;5.70;;;;;;;;;;79845;260;3031748;-34
2023/03/19 13:18:34;;;;;;;7.70;5.70;;;;;;;;;;79820;260;3035495;-34
2023/03/19 13:21:24;;;;;;;7.30;5.70;;;;;;;;;;79829;260;3027187;-34
2023/03/19 13:24:16;;;;;;;7.30;5.50;;;;;;;;;;79828;260;3030505;-34
2023/03/19 13:26:56;;;;;;;8.40;5.90;;;;;;;;;;79825;260;3033769;-34
2023/03/19 13:29:35;;;;;;;9.50;6.70;;;;;;;;;;79843;261;3028377;-34
2023/03/19 13:32:27;;;;;;;10.90;7.20;;;;;;;;;;79829;264;3027490;-34
2023/03/19 13:35:36;;;;;;;11.40;6.80;;;;;;;;;;79852;260;3031367;-34
2023/03/19 13:38:22;;;;;;;9.70;6.90;;;;;;;;;;79791;260;3031919;-34
2023/03/19 13:41:01;;;;;;;10.20;7.00;;;;;;;;;;79854;260;3028101;-34
2023/03/19 13:43:55;;;;;;;11.10;6.90;;;;;;;;;;79835;260;3027179;-34
2023/03/19 13:46:44;;;;;;;11.20;6.90;;;;;;;;;;79825;260;3030569;-34
2023/03/19 13:49:37;;;;;;;12.00;7.40;;;;;;;;;;79833;260;3037826;-34
2023/03/19 13:52:49;;;;;;;9.40;6.90;;;;;;;;;;79823;261;3029015;-35
2023/03/19 13:55:45;;;;;;;10.10;7.50;;;;;;;;;;79863;260;3027280;-35
2023/03/19 14:01:44;;;;;;;10.90;7.20;;;;;;;;;;79816;260;3031606;-35
2023/03/19 14:04:28;;;;;;;10.90;7.10;;;;;;;;;;79833;261;3028716;-35
2023/03/19 14:07:17;;;;;;;11.80;7.90;;;;;;;;;;79826;260;3027701;-35
2023/03/19 14:09:52;;;;;;;11.20;7.90;;;;;;;;;;79881;260;3036922;-35
2023/03/19 14:12:36;;;;;;;11.40;8.00;;;;;;;;;;79800;260;3031316;-35
2023/03/19 14:15:22;;;;;;;11.70;7.70;;;;;;;;;;79841;261;3028233;-35
2023/03/19 14:18:04;;;;;;;12.20;8.00;;;;;;;;;;79816;260;3027127;-35
2023/03/19 14:20:56;;;;;;;10.00;7.60;;;;;;;;;;79866;260;3031258;-35
2023/03/19 14:23:36;;;;;;;12.20;8.40;;;;;;;;;;79845;257;3031721;-35
2023/03/19 14:26:24;;;;;;;10.80;7.90;;;;;;;;;;79831;261;3028970;-34
2023/03/19 14:29:04;;;;;;;11.10;8.00;;;;;;;;;;79805;260;3028512;-34
2023/03/19 14:31:47;;;;;;;10.20;7.90;;;;;;;;;;79853;260;3030629;-34
2023/03/19 14:34:26;;;;;;;;;;;;;;;;;;79840;260;3031749;-34
2023/03/19 14:37:09;;;;;;;11.70;7.50;;;;;;;;;;79398;261;3029225;-34
2023/03/19 14:39:46;;;;;;;11.50;7.30;;;;;;;;;;79780;260;3027383;-34
2023/03/19 14:42:24;;;;;;;9.90;7.40;;;;;;;;;;79816;261;3030957;-34
2023/03/19 14:45:33;;;;;;;10.60;7.20;;;;;;;;;;79821;261;3033271;-34
2023/03/19 14:48:26;;;;;;;9.90;7.00;;;;;;;;;;79849;260;3027760;-34
2023/03/19 14:51:32;;;;;;;11.00;7.30;;;;;;;;;;79922;260;3034556;-34
2023/03/19 14:54:19;;;;;;;10.20;6.70;;;;;;;;;;79821;260;3031061;-34
2023/03/19 14:57:05;;;;;;;9.30;6.40;;;;;;;;;;79833;260;3031495;-34
2023/03/19 14:59:41;;;;;;;;;;;;;;;;;;79842;260;3027969;-34
2023/03/19 15:02:34;;;;;;;9.50;6.60;;;;;;;;;;79846;261;3028055;-34
2023/03/19 15:05:15;;;;;;;9.60;6.70;;;;;;;;;;79807;260;3030573;-34
2023/03/19 15:07:55;;;;;;;9.70;6.50;;;;;;;;;;79839;260;3032237;-34
2023/03/19 15:10:36;;;;;;;9.30;6.90;;;;;;;;;;79827;260;3028094;-34
2023/03/19 15:13:37;;;;;;;9.10;6.30;;;;;;;;;;79841;261;3027878;-34
2023/03/19 15:16:30;;;;;;;10.00;6.40;;;;;;;;;;79838;260;3031921;-34
2023/03/19 15:19:10;;;;;;;9.80;6.60;;;;;;;;;;79809;261;3031206;-34
2023/03/19 15:21:44;;;;;;;8.80;6.30;;;;;;;;;;79945;261;3035616;-34
2023/03/19 15:24:22;;;;;;;9.60;6.10;;;;;;;;;;80537;260;3011492;-34
2023/03/19 15:26:57;;;;;;;8.70;6.10;;;;;;;;;;79845;260;3027724;-34
2023/03/19 15:29:36;;;;;;;9.50;6.20;;;;;;;;;;80577;260;3011410;-34
2023/03/19 15:32:11;;;;;;;9.20;6.60;;;;;;;;;;79855;260;3037275;-34
2023/03/19 15:34:49;;;;;;;8.30;6.20;;;;;;;;;;79848;261;3031463;-34
2023/03/19 15:37:25;;;;;;;8.30;6.00;;;;;;;;;;80570;260;3011436;-34
2023/03/19 15:40:02;;;;;;;8.70;6.30;;;;;;;;;;79772;260;3028850;-34
2023/03/19 15:42:37;;;;;;;8.70;6.30;;;;;;;;;;79730;262;3027655;-34
2023/03/19 15:45:17;;;;;;;8.70;6.20;;;;;;;;;;79842;261;3030627;-34
2023/03/19 15:47:57;;;;;;;8.40;6.00;;;;;;;;;;79853;261;3031346;-34